sensor_id;sensor_type;location;lat;lon;timestamp;pressure;altitude;pressure_sealevel;temperature;humidity
24858;BME280;12935;50.782;6.074;2023-11-21T00:00:49;98917.25;;;8.42;100.00
24858;BME280;12935;50.782;6.074;2023-11-21T00:03:15;98914.50;;;8.46;100.00
24858;BME280;12935;50.782;6.074;2023-11-21T00:05:41;98921.91;;;8.49;100.00
24858;BME280;12935;50.782;6.074;2023-11-21T00:08:07;98918.78;;;8.43;100.00
24858;BME280;12935;50.782;6.074;2023-11-21T00:10:33;98926.19;;;8.36;100.00
24858;BME280;12935;50.782;6.074;2023-11-21T00:12:58;98929.72;;;8.33;100.00
24858;BME280;12935;50.782;6.074;2023-11-21T00:15:23;98932.03;;;8.27;100.00
24858;BME280;12935;50.782;6.074;2023-11-21T00:17:48;98930.47;;;8.19;100.00
24858;BME280;12935;50.782;6.074;2023-11-21T00:20:14;98940.22;;;8.17;100.00
24858;BME280;12935;50.782;6.074;2023-11-21T00:22:40;98940.22;;;8.17;100.00
24858;BME280;12935;50.782;6.074;2023-11-21T00:25:06;98932.41;;;8.04;100.00
24858;BME280;12935;50.782;6.074;2023-11-21T00:27:34;98940.59;;;8.08;100.00
24858;BME280;12935;50.782;6.074;2023-11-21T00:30:00;98943.69;;;8.03;100.00
24858;BME280;12935;50.782;6.074;2023-11-21T00:32:25;98948.34;;;8.20;100.00
24858;BME280;12935;50.782;6.074;2023-11-21T00:34:50;98940.97;;;8.10;100.00
24858;BME280;12935;50.782;6.074;2023-11-21T00:37:16;98945.28;;;7.97;100.00
24858;BME280;12935;50.782;6.074;2023-11-21T00:39:41;98944.47;;;7.89;100.00
24858;BME280;12935;50.782;6.074;2023-11-21T00:42:06;98948.38;;;7.85;100.00
24858;BME280;12935;50.782;6.074;2023-11-21T00:44:32;98951.09;;;7.78;100.00
24858;BME280;12935;50.782;6.074;2023-11-21T00:46:59;98948.38;;;7.78;100.00
24858;BME280;12935;50.782;6.074;2023-11-21T00:49:24;98950.31;;;7.81;100.00
24858;BME280;12935;50.782;6.074;2023-11-21T00:51:50;98958.47;;;7.81;100.00
24858;BME280;12935;50.782;6.074;2023-11-21T00:54:15;98961.59;;;7.79;100.00
24858;BME280;12935;50.782;6.074;2023-11-21T00:56:42;98954.22;;;7.80;100.00
24858;BME280;12935;50.782;6.074;2023-11-21T00:59:08;98958.88;;;7.79;100.00
24858;BME280;12935;50.782;6.074;2023-11-21T01:01:33;98960.78;;;7.71;100.00
24858;BME280;12935;50.782;6.074;2023-11-21T01:03:58;98962.38;;;7.69;100.00
24858;BME280;12935;50.782;6.074;2023-11-21T01:06:24;98962.75;;;7.71;100.00
24858;BME280;12935;50.782;6.074;2023-11-21T01:08:49;98967.78;;;7.72;100.00
24858;BME280;12935;50.782;6.074;2023-11-21T01:11:14;98967.41;;;7.70;100.00
24858;BME280;12935;50.782;6.074;2023-11-21T01:13:40;98970.91;;;7.71;100.00
24858;BME280;12935;50.782;6.074;2023-11-21T01:16:05;98971.69;;;7.75;100.00
24858;BME280;12935;50.782;6.074;2023-11-21T01:18:37;98972.84;;;7.78;100.00
24858;BME280;12935;50.782;6.074;2023-11-21T01:21:03;98972.47;;;7.79;100.00
24858;BME280;12935;50.782;6.074;2023-11-21T01:23:28;98974.03;;;7.80;100.00
24858;BME280;12935;50.782;6.074;2023-11-21T01:25:56;98977.53;;;7.84;100.00
24858;BME280;12935;50.782;6.074;2023-11-21T01:28:22;98977.91;;;7.83;100.00
24858;BME280;12935;50.782;6.074;2023-11-21T01:30:48;98978.69;;;7.83;100.00
24858;BME280;12935;50.782;6.074;2023-11-21T01:33:13;98975.19;;;7.79;100.00
24858;BME280;12935;50.782;6.074;2023-11-21T01:35:41;98983.34;;;7.79;100.00
24858;BME280;12935;50.782;6.074;2023-11-21T01:38:06;98988.03;;;7.86;100.00
24858;BME280;12935;50.782;6.074;2023-11-21T01:40:33;98986.47;;;7.85;100.00
24858;BME280;12935;50.782;6.074;2023-11-21T01:42:58;98982.94;;;7.88;100.00
24858;BME280;12935;50.782;6.074;2023-11-21T01:45:24;98988.78;;;7.90;100.00
24858;BME280;12935;50.782;6.074;2023-11-21T01:47:50;98993.47;;;7.96;100.00
24858;BME280;12935;50.782;6.074;2023-11-21T01:50:16;98997.72;;;8.04;100.00
24858;BME280;12935;50.782;6.074;2023-11-21T01:52:47;98991.50;;;8.07;100.00
24858;BME280;12935;50.782;6.074;2023-11-21T01:55:16;98992.66;;;8.06;100.00
24858;BME280;12935;50.782;6.074;2023-11-21T01:57:48;98989.19;;;8.02;100.00
24858;BME280;12935;50.782;6.074;2023-11-21T02:00:13;98986.47;;;8.13;100.00
24858;BME280;12935;50.782;6.074;2023-11-21T02:02:45;99001.22;;;8.19;100.00
24858;BME280;12935;50.782;6.074;2023-11-21T02:05:12;99002.78;;;8.06;100.00
24858;BME280;12935;50.782;6.074;2023-11-21T02:07:41;98996.19;;;8.00;100.00
24858;BME280;12935;50.782;6.074;2023-11-21T02:10:08;99002.41;;;7.97;100.00
24858;BME280;12935;50.782;6.074;2023-11-21T02:12:34;99000.84;;;7.96;100.00
24858;BME280;12935;50.782;6.074;2023-11-21T02:15:03;98998.13;;;7.99;100.00
24858;BME280;12935;50.782;6.074;2023-11-21T02:17:40;99002.00;;;8.05;100.00
24858;BME280;12935;50.782;6.074;2023-11-21T02:20:05;99008.25;;;8.02;100.00
24858;BME280;12935;50.782;6.074;2023-11-21T02:22:32;99008.63;;;7.97;100.00
24858;BME280;12935;50.782;6.074;2023-11-21T02:25:02;99008.22;;;7.95;100.00
24858;BME280;12935;50.782;6.074;2023-11-21T02:27:27;99013.28;;;8.00;100.00
24858;BME280;12935;50.782;6.074;2023-11-21T02:29:53;99008.59;;;8.08;100.00
24858;BME280;12935;50.782;6.074;2023-11-21T02:32:19;99009.78;;;8.18;100.00
24858;BME280;12935;50.782;6.074;2023-11-21T02:34:47;99014.06;;;8.29;100.00
24858;BME280;12935;50.782;6.074;2023-11-21T02:37:13;99022.63;;;8.35;100.00
24858;BME280;12935;50.782;6.074;2023-11-21T02:39:38;99020.28;;;8.23;100.00
24858;BME280;12935;50.782;6.074;2023-11-21T02:42:03;99021.84;;;8.13;100.00
24858;BME280;12935;50.782;6.074;2023-11-21T02:44:29;99033.47;;;8.21;100.00
24858;BME280;12935;50.782;6.074;2023-11-21T02:46:54;99026.91;;;8.15;100.00
24858;BME280;12935;50.782;6.074;2023-11-21T02:49:19;99029.63;;;8.18;100.00
24858;BME280;12935;50.782;6.074;2023-11-21T02:51:44;99019.50;;;8.08;100.00
24858;BME280;12935;50.782;6.074;2023-11-21T02:54:11;99027.28;;;8.09;100.00
24858;BME280;12935;50.782;6.074;2023-11-21T02:56:36;99032.72;;;8.17;100.00
24858;BME280;12935;50.782;6.074;2023-11-21T02:59:02;99031.16;;;8.19;100.00
24858;BME280;12935;50.782;6.074;2023-11-21T03:01:28;99025.72;;;8.19;100.00
24858;BME280;12935;50.782;6.074;2023-11-21T03:03:53;99035.44;;;8.31;100.00
24858;BME280;12935;50.782;6.074;2023-11-21T03:06:20;99035.84;;;8.29;100.00
24858;BME280;12935;50.782;6.074;2023-11-21T03:08:46;99031.94;;;8.16;100.00
24858;BME280;12935;50.782;6.074;2023-11-21T03:11:12;99037.00;;;8.14;100.00
24858;BME280;12935;50.782;6.074;2023-11-21T03:13:41;99038.53;;;8.08;100.00
24858;BME280;12935;50.782;6.074;2023-11-21T03:16:09;99046.69;;;8.19;100.00
24858;BME280;12935;50.782;6.074;2023-11-21T03:18:36;99044.75;;;8.19;100.00
24858;BME280;12935;50.782;6.074;2023-11-21T03:21:01;99051.78;;;8.31;100.00
24858;BME280;12935;50.782;6.074;2023-11-21T03:23:26;99038.59;;;8.47;100.00
24858;BME280;12935;50.782;6.074;2023-11-21T03:25:52;99042.06;;;8.55;100.00
24858;BME280;12935;50.782;6.074;2023-11-21T03:28:17;99044.41;;;8.56;100.00
24858;BME280;12935;50.782;6.074;2023-11-21T03:30:43;99049.06;;;8.56;100.00
24858;BME280;12935;50.782;6.074;2023-11-21T03:33:08;99048.69;;;8.57;100.00
24858;BME280;12935;50.782;6.074;2023-11-21T03:35:33;99060.34;;;8.43;100.00
24858;BME280;12935;50.782;6.074;2023-11-21T03:37:58;99065.41;;;8.34;100.00
24858;BME280;12935;50.782;6.074;2023-11-21T03:40:24;99081.75;;;8.38;100.00
24858;BME280;12935;50.782;6.074;2023-11-21T03:42:49;99077.88;;;8.46;100.00
24858;BME280;12935;50.782;6.074;2023-11-21T03:45:14;99085.25;;;8.56;100.00
24858;BME280;12935;50.782;6.074;2023-11-21T03:47:43;99087.19;;;8.59;100.00
24858;BME280;12935;50.782;6.074;2023-11-21T03:50:08;99086.78;;;8.50;100.00
24858;BME280;12935;50.782;6.074;2023-11-21T03:52:34;99088.34;;;8.58;100.00
24858;BME280;12935;50.782;6.074;2023-11-21T03:55:00;99089.91;;;8.70;100.00
24858;BME280;12935;50.782;6.074;2023-11-21T03:57:26;99085.22;;;8.74;100.00
24858;BME280;12935;50.782;6.074;2023-11-21T03:59:53;99089.13;;;8.76;100.00
24858;BME280;12935;50.782;6.074;2023-11-21T04:02:18;99090.69;;;8.81;100.00
24858;BME280;12935;50.782;6.074;2023-11-21T04:04:43;99098.84;;;8.81;100.00
24858;BME280;12935;50.782;6.074;2023-11-21T04:07:09;99094.19;;;8.64;100.00
24858;BME280;12935;50.782;6.074;2023-11-21T04:09:34;99093.81;;;8.58;100.00
24858;BME280;12935;50.782;6.074;2023-11-21T04:12:01;99096.13;;;8.67;100.00
24858;BME280;12935;50.782;6.074;2023-11-21T04:14:27;99089.13;;;8.69;100.00
24858;BME280;12935;50.782;6.074;2023-11-21T04:16:52;99094.97;;;8.54;100.00
24858;BME280;12935;50.782;6.074;2023-11-21T04:19:18;99090.69;;;8.49;100.00
24858;BME280;12935;50.782;6.074;2023-11-21T04:21:44;99099.25;;;8.58;100.00
24858;BME280;12935;50.782;6.074;2023-11-21T04:24:10;99100.03;;;8.62;100.00
24858;BME280;12935;50.782;6.074;2023-11-21T04:26:35;99095.34;;;8.52;100.00
24858;BME280;12935;50.782;6.074;2023-11-21T04:29:01;99099.25;;;8.48;100.00
24858;BME280;12935;50.782;6.074;2023-11-21T04:31:26;99106.25;;;8.49;100.00
24858;BME280;12935;50.782;6.074;2023-11-21T04:33:51;99103.50;;;8.52;100.00
24858;BME280;12935;50.782;6.074;2023-11-21T04:36:17;99112.88;;;8.48;100.00
24858;BME280;12935;50.782;6.074;2023-11-21T04:38:42;99116.75;;;8.61;100.00
24858;BME280;12935;50.782;6.074;2023-11-21T04:41:08;99115.56;;;8.69;100.00
24858;BME280;12935;50.782;6.074;2023-11-21T04:43:33;99108.19;;;8.76;100.00
24858;BME280;12935;50.782;6.074;2023-11-21T04:45:59;99114.41;;;8.77;100.00
24858;BME280;12935;50.782;6.074;2023-11-21T04:48:25;99121.78;;;8.66;100.00
24858;BME280;12935;50.782;6.074;2023-11-21T04:50:50;99122.59;;;8.59;100.00
24858;BME280;12935;50.782;6.074;2023-11-21T04:53:16;99118.28;;;8.51;100.00
24858;BME280;12935;50.782;6.074;2023-11-21T04:55:42;99128.81;;;8.46;100.00
24858;BME280;12935;50.782;6.074;2023-11-21T04:58:07;99119.06;;;8.37;100.00
24858;BME280;12935;50.782;6.074;2023-11-21T05:00:33;99117.13;;;8.52;100.00
24858;BME280;12935;50.782;6.074;2023-11-21T05:02:59;99124.91;;;8.54;100.00
24858;BME280;12935;50.782;6.074;2023-11-21T05:05:26;99130.75;;;8.45;100.00
24858;BME280;12935;50.782;6.074;2023-11-21T05:07:51;99131.53;;;8.53;100.00
24858;BME280;12935;50.782;6.074;2023-11-21T05:10:18;99137.38;;;8.58;100.00
24858;BME280;12935;50.782;6.074;2023-11-21T05:12:44;99145.13;;;8.53;100.00
24858;BME280;12935;50.782;6.074;2023-11-21T05:15:14;99142.03;;;8.58;100.00
24858;BME280;12935;50.782;6.074;2023-11-21T05:17:40;99149.03;;;8.69;100.00
24858;BME280;12935;50.782;6.074;2023-11-21T05:20:13;99138.91;;;8.66;100.00
24858;BME280;12935;50.782;6.074;2023-11-21T05:22:39;99141.63;;;8.70;100.00
24858;BME280;12935;50.782;6.074;2023-11-21T05:25:05;99140.84;;;8.66;100.00
24858;BME280;12935;50.782;6.074;2023-11-21T05:27:32;99141.63;;;8.66;100.00
24858;BME280;12935;50.782;6.074;2023-11-21T05:29:58;99140.47;;;8.67;100.00
24858;BME280;12935;50.782;6.074;2023-11-21T05:32:24;99157.19;;;8.66;100.00
24858;BME280;12935;50.782;6.074;2023-11-21T05:34:49;99160.31;;;8.61;100.00
24858;BME280;12935;50.782;6.074;2023-11-21T05:37:15;99156.81;;;8.74;100.00
24858;BME280;12935;50.782;6.074;2023-11-21T05:39:40;99163.44;;;8.88;100.00
24858;BME280;12935;50.782;6.074;2023-11-21T05:42:05;99166.94;;;8.92;100.00
24858;BME280;12935;50.782;6.074;2023-11-21T05:44:31;99165.78;;;8.96;100.00
24858;BME280;12935;50.782;6.074;2023-11-21T05:46:56;99170.44;;;8.92;100.00
24858;BME280;12935;50.782;6.074;2023-11-21T05:49:24;99177.84;;;8.95;100.00
24858;BME280;12935;50.782;6.074;2023-11-21T05:51:52;99180.56;;;8.81;100.00
24858;BME280;12935;50.782;6.074;2023-11-21T05:54:19;99188.75;;;8.63;100.00
24858;BME280;12935;50.782;6.074;2023-11-21T05:56:44;99186.78;;;8.57;100.00
24858;BME280;12935;50.782;6.074;2023-11-21T05:59:09;99194.94;;;8.60;100.00
24858;BME280;12935;50.782;6.074;2023-11-21T06:01:35;99197.25;;;8.51;100.00
24858;BME280;12935;50.782;6.074;2023-11-21T06:04:03;99192.97;;;8.43;100.00
24858;BME280;12935;50.782;6.074;2023-11-21T06:06:29;99203.88;;;8.47;100.00
24858;BME280;12935;50.782;6.074;2023-11-21T06:08:54;99211.66;;;8.55;100.00
24858;BME280;12935;50.782;6.074;2023-11-21T06:11:20;99221.00;;;8.47;100.00
24858;BME280;12935;50.782;6.074;2023-11-21T06:13:45;99218.28;;;8.47;100.00
24858;BME280;12935;50.782;6.074;2023-11-21T06:16:11;99229.97;;;8.58;100.00
24858;BME280;12935;50.782;6.074;2023-11-21T06:18:38;99227.59;;;8.53;100.00
24858;BME280;12935;50.782;6.074;2023-11-21T06:21:03;99225.69;;;8.57;100.00
24858;BME280;12935;50.782;6.074;2023-11-21T06:23:29;99234.25;;;8.73;100.00
24858;BME280;12935;50.782;6.074;2023-11-21T06:25:54;99223.38;;;8.77;100.00
24858;BME280;12935;50.782;6.074;2023-11-21T06:28:19;99231.94;;;8.79;100.00
24858;BME280;12935;50.782;6.074;2023-11-21T06:30:45;99238.16;;;8.72;100.00
24858;BME280;12935;50.782;6.074;2023-11-21T06:33:10;99240.91;;;8.79;100.00
24858;BME280;12935;50.782;6.074;2023-11-21T06:35:36;99236.59;;;8.64;100.00
24858;BME280;12935;50.782;6.074;2023-11-21T06:38:01;99239.66;;;8.52;100.00
24858;BME280;12935;50.782;6.074;2023-11-21T06:40:28;99244.31;;;8.41;100.00
24858;BME280;12935;50.782;6.074;2023-11-21T06:42:53;99237.66;;;8.31;100.00
24858;BME280;12935;50.782;6.074;2023-11-21T06:45:19;99239.97;;;8.29;100.00
24858;BME280;12935;50.782;6.074;2023-11-21T06:47:45;99245.81;;;8.31;100.00
24858;BME280;12935;50.782;6.074;2023-11-21T06:50:10;99242.69;;;8.26;100.00
24858;BME280;12935;50.782;6.074;2023-11-21T06:52:36;99245.41;;;8.29;100.00
24858;BME280;12935;50.782;6.074;2023-11-21T06:55:01;99249.69;;;8.30;100.00
24858;BME280;12935;50.782;6.074;2023-11-21T06:57:26;99250.81;;;8.19;100.00
24858;BME280;12935;50.782;6.074;2023-11-21T06:59:52;99256.66;;;8.17;100.00
24858;BME280;12935;50.782;6.074;2023-11-21T07:02:17;99253.16;;;8.17;100.00
24858;BME280;12935;50.782;6.074;2023-11-21T07:04:46;99258.22;;;8.25;100.00
24858;BME280;12935;50.782;6.074;2023-11-21T07:07:11;99264.06;;;8.24;100.00
24858;BME280;12935;50.782;6.074;2023-11-21T07:09:37;99272.59;;;8.22;100.00
24858;BME280;12935;50.782;6.074;2023-11-21T07:12:02;99280.75;;;8.19;100.00
24858;BME280;12935;50.782;6.074;2023-11-21T07:14:29;99279.22;;;8.18;100.00
24858;BME280;12935;50.782;6.074;2023-11-21T07:16:54;99280.00;;;8.18;100.00
24858;BME280;12935;50.782;6.074;2023-11-21T07:19:20;99280.38;;;8.17;100.00
24858;BME280;12935;50.782;6.074;2023-11-21T07:21:46;99290.09;;;8.18;100.00
24858;BME280;12935;50.782;6.074;2023-11-21T07:24:12;99293.22;;;8.23;100.00
24858;BME280;12935;50.782;6.074;2023-11-21T07:26:37;99290.50;;;8.23;100.00
24858;BME280;12935;50.782;6.074;2023-11-21T07:29:03;99300.22;;;8.24;100.00
24858;BME280;12935;50.782;6.074;2023-11-21T07:31:29;99300.59;;;8.23;100.00
24858;BME280;12935;50.782;6.074;2023-11-21T07:33:55;99305.66;;;8.24;100.00
24858;BME280;12935;50.782;6.074;2023-11-21T07:36:23;99302.59;;;8.29;100.00
24858;BME280;12935;50.782;6.074;2023-11-21T07:38:49;99307.59;;;8.24;100.00
24858;BME280;12935;50.782;6.074;2023-11-21T07:41:15;99315.00;;;8.27;100.00
24858;BME280;12935;50.782;6.074;2023-11-21T07:43:44;99332.13;;;8.27;100.00
24858;BME280;12935;50.782;6.074;2023-11-21T07:46:10;99317.72;;;8.27;100.00
24858;BME280;12935;50.782;6.074;2023-11-21T07:48:38;99326.69;;;8.27;100.00
24858;BME280;12935;50.782;6.074;2023-11-21T07:51:03;99328.63;;;8.30;100.00
24858;BME280;12935;50.782;6.074;2023-11-21T07:53:29;99329.41;;;8.27;100.00
24858;BME280;12935;50.782;6.074;2023-11-21T07:56:05;99327.47;;;8.28;100.00
24858;BME280;12935;50.782;6.074;2023-11-21T07:58:30;99335.66;;;8.31;100.00
24858;BME280;12935;50.782;6.074;2023-11-21T08:00:58;99334.47;;;8.29;100.00
24858;BME280;12935;50.782;6.074;2023-11-21T08:03:23;99339.53;;;8.30;100.00
24858;BME280;12935;50.782;6.074;2023-11-21T08:05:49;99338.75;;;8.30;100.00
24858;BME280;12935;50.782;6.074;2023-11-21T08:08:14;99344.63;;;8.32;100.00
24858;BME280;12935;50.782;6.074;2023-11-21T08:10:40;99356.34;;;8.47;100.00
24858;BME280;12935;50.782;6.074;2023-11-21T08:13:07;99354.41;;;8.51;100.00
24858;BME280;12935;50.782;6.074;2023-11-21T08:15:34;99356.38;;;8.54;100.00
24858;BME280;12935;50.782;6.074;2023-11-21T08:18:00;99363.75;;;8.53;100.00
24858;BME280;12935;50.782;6.074;2023-11-21T08:20:25;99363.00;;;8.56;100.00
24858;BME280;12935;50.782;6.074;2023-11-21T08:22:51;99366.16;;;8.65;100.00
24858;BME280;12935;50.782;6.074;2023-11-21T08:25:18;99369.69;;;8.76;100.00
24858;BME280;12935;50.782;6.074;2023-11-21T08:27:45;99373.59;;;8.75;100.00
24858;BME280;12935;50.782;6.074;2023-11-21T08:30:11;99376.69;;;8.74;100.00
24858;BME280;12935;50.782;6.074;2023-11-21T08:32:37;99378.66;;;8.77;100.00
24858;BME280;12935;50.782;6.074;2023-11-21T08:35:02;99382.91;;;8.74;100.00
24858;BME280;12935;50.782;6.074;2023-11-21T08:37:27;99386.47;;;8.89;100.00
24858;BME280;12935;50.782;6.074;2023-11-21T08:39:55;99393.13;;;9.02;100.00
24858;BME280;12935;50.782;6.074;2023-11-21T08:42:22;99394.66;;;8.93;100.00
24858;BME280;12935;50.782;6.074;2023-11-21T08:44:48;99389.16;;;8.86;100.00
24858;BME280;12935;50.782;6.074;2023-11-21T08:47:13;99400.88;;;8.90;100.00
24858;BME280;12935;50.782;6.074;2023-11-21T08:49:39;99406.69;;;8.88;100.00
24858;BME280;12935;50.782;6.074;2023-11-21T08:52:05;99407.50;;;8.99;100.00
24858;BME280;12935;50.782;6.074;2023-11-21T08:54:31;99406.34;;;9.04;100.00
24858;BME280;12935;50.782;6.074;2023-11-21T08:56:57;99410.28;;;9.21;100.00
24858;BME280;12935;50.782;6.074;2023-11-21T08:59:25;99410.72;;;9.26;100.00
24858;BME280;12935;50.782;6.074;2023-11-21T09:01:51;99424.75;;;9.28;100.00
24858;BME280;12935;50.782;6.074;2023-11-21T09:04:16;99413.81;;;9.21;100.00
24858;BME280;12935;50.782;6.074;2023-11-21T09:06:42;99419.25;;;9.18;100.00
24858;BME280;12935;50.782;6.074;2023-11-21T09:09:07;99411.06;;;9.21;100.00
24858;BME280;12935;50.782;6.074;2023-11-21T09:11:35;99429.78;;;9.33;100.00
24858;BME280;12935;50.782;6.074;2023-11-21T09:14:00;99430.22;;;9.53;100.00
24858;BME280;12935;50.782;6.074;2023-11-21T09:16:26;99441.16;;;9.57;100.00
24858;BME280;12935;50.782;6.074;2023-11-21T09:18:51;99444.66;;;9.57;100.00
24858;BME280;12935;50.782;6.074;2023-11-21T09:21:16;99438.41;;;9.53;100.00
24858;BME280;12935;50.782;6.074;2023-11-21T09:23:44;99444.63;;;9.50;100.00
24858;BME280;12935;50.782;6.074;2023-11-21T09:26:10;99450.44;;;9.45;100.00
24858;BME280;12935;50.782;6.074;2023-11-21T09:28:35;99452.00;;;9.39;100.00
24858;BME280;12935;50.782;6.074;2023-11-21T09:31:03;99455.53;;;9.46;100.00
24858;BME280;12935;50.782;6.074;2023-11-21T09:33:29;99456.69;;;9.49;100.00
24858;BME280;12935;50.782;6.074;2023-11-21T09:35:55;99462.94;;;9.60;100.00
24858;BME280;12935;50.782;6.074;2023-11-21T09:38:20;99453.22;;;9.52;100.00
24858;BME280;12935;50.782;6.074;2023-11-21T09:40:46;99463.69;;;9.46;100.00
24858;BME280;12935;50.782;6.074;2023-11-21T09:43:17;99468.00;;;9.47;100.00
24858;BME280;12935;50.782;6.074;2023-11-21T09:45:47;99468.06;;;9.72;100.00
24858;BME280;12935;50.782;6.074;2023-11-21T09:48:16;99472.72;;;9.72;100.00
24858;BME280;12935;50.782;6.074;2023-11-21T09:50:42;99473.09;;;9.67;100.00
24858;BME280;12935;50.782;6.074;2023-11-21T09:53:18;99476.22;;;9.58;100.00
24858;BME280;12935;50.782;6.074;2023-11-21T09:55:47;99477.00;;;9.55;100.00
24858;BME280;12935;50.782;6.074;2023-11-21T09:58:14;99469.97;;;9.54;100.00
24858;BME280;12935;50.782;6.074;2023-11-21T10:00:41;99471.13;;;9.53;100.00
24858;BME280;12935;50.782;6.074;2023-11-21T10:03:07;99469.19;;;9.54;100.00
24858;BME280;12935;50.782;6.074;2023-11-21T10:05:33;99475.03;;;9.63;100.00
24858;BME280;12935;50.782;6.074;2023-11-21T10:07:59;99468.81;;;9.76;100.00
24858;BME280;12935;50.782;6.074;2023-11-21T10:10:25;99468.03;;;9.65;100.00
24858;BME280;12935;50.782;6.074;2023-11-21T10:12:57;99481.28;;;9.77;100.00
24858;BME280;12935;50.782;6.074;2023-11-21T10:15:24;99481.69;;;9.94;100.00
24858;BME280;12935;50.782;6.074;2023-11-21T10:17:53;99484.03;;;9.99;100.00
24858;BME280;12935;50.782;6.074;2023-11-21T10:20:20;99485.63;;;10.07;100.00
24858;BME280;12935;50.782;6.074;2023-11-21T10:22:45;99476.66;;;10.28;100.00
24858;BME280;12935;50.782;6.074;2023-11-21T10:25:12;99491.84;;;10.43;100.00
24858;BME280;12935;50.782;6.074;2023-11-21T10:27:39;99487.56;;;10.45;100.00
24858;BME280;12935;50.782;6.074;2023-11-21T10:30:06;99482.47;;;10.47;100.00
24858;BME280;12935;50.782;6.074;2023-11-21T10:32:33;99489.13;;;10.53;100.00
24858;BME280;12935;50.782;6.074;2023-11-21T10:34:59;99493.00;;;10.49;100.00
24858;BME280;12935;50.782;6.074;2023-11-21T10:37:32;99496.50;;;10.60;100.00
24858;BME280;12935;50.782;6.074;2023-11-21T10:39:58;99499.97;;;10.71;100.00
24858;BME280;12935;50.782;6.074;2023-11-21T10:42:24;99499.22;;;10.67;100.00
24858;BME280;12935;50.782;6.074;2023-11-21T10:44:49;99496.91;;;10.44;100.00
24858;BME280;12935;50.782;6.074;2023-11-21T10:47:16;99502.00;;;10.32;100.00
24858;BME280;12935;50.782;6.074;2023-11-21T10:49:44;99499.66;;;10.23;100.00
24858;BME280;12935;50.782;6.074;2023-11-21T10:52:10;99481.72;;;10.26;100.00
24858;BME280;12935;50.782;6.074;2023-11-21T10:54:43;99489.91;;;10.26;100.00
24858;BME280;12935;50.782;6.074;2023-11-21T10:57:10;99488.75;;;10.19;100.00
24858;BME280;12935;50.782;6.074;2023-11-21T10:59:35;99491.09;;;10.28;100.00
24858;BME280;12935;50.782;6.074;2023-11-21T11:02:12;99496.13;;;10.47;100.00
24858;BME280;12935;50.782;6.074;2023-11-21T11:04:47;99498.84;;;10.58;100.00
24858;BME280;12935;50.782;6.074;2023-11-21T11:07:14;99498.44;;;10.63;100.00
24858;BME280;12935;50.782;6.074;2023-11-21T11:09:41;99499.22;;;10.60;100.00
24858;BME280;12935;50.782;6.074;2023-11-21T11:12:06;99497.69;;;10.41;100.00
24858;BME280;12935;50.782;6.074;2023-11-21T11:14:35;99500.44;;;10.34;100.00
24858;BME280;12935;50.782;6.074;2023-11-21T11:17:00;99502.00;;;10.25;100.00
24858;BME280;12935;50.782;6.074;2023-11-21T11:19:27;99507.09;;;10.19;100.00
24858;BME280;12935;50.782;6.074;2023-11-21T11:22:25;99504.31;;;10.15;100.00
24858;BME280;12935;50.782;6.074;2023-11-21T11:33:09;99512.13;;;10.17;100.00
24858;BME280;12935;50.782;6.074;2023-11-21T11:35:50;99509.44;;;10.35;100.00
24858;BME280;12935;50.782;6.074;2023-11-21T11:38:21;99506.69;;;10.35;100.00
24858;BME280;12935;50.782;6.074;2023-11-21T11:40:47;99509.41;;;10.52;100.00
24858;BME280;12935;50.782;6.074;2023-11-21T11:43:25;99510.53;;;10.76;100.00
24858;BME280;12935;50.782;6.074;2023-11-21T11:45:50;99514.84;;;10.70;100.00
24858;BME280;12935;50.782;6.074;2023-11-21T11:48:17;99517.94;;;10.83;100.00
24858;BME280;12935;50.782;6.074;2023-11-21T11:51:05;99514.81;;;10.81;100.00
24858;BME280;12935;50.782;6.074;2023-11-21T11:53:47;99514.81;;;10.84;100.00
24858;BME280;12935;50.782;6.074;2023-11-21T11:56:24;99520.22;;;10.95;100.00
24858;BME280;12935;50.782;6.074;2023-11-21T11:58:55;99517.16;;;10.86;100.00
24858;BME280;12935;50.782;6.074;2023-11-21T12:01:22;99520.28;;;10.84;100.00
24858;BME280;12935;50.782;6.074;2023-11-21T12:06:41;99520.25;;;10.88;100.00
24858;BME280;12935;50.782;6.074;2023-11-21T12:09:07;99527.28;;;10.89;100.00
24858;BME280;12935;50.782;6.074;2023-11-21T12:11:41;99516.72;;;11.02;100.00
24858;BME280;12935;50.782;6.074;2023-11-21T12:14:06;99525.66;;;11.06;100.00
24858;BME280;12935;50.782;6.074;2023-11-21T12:16:32;99529.16;;;11.17;100.00
24858;BME280;12935;50.782;6.074;2023-11-21T12:18:58;99531.44;;;11.25;100.00
24858;BME280;12935;50.782;6.074;2023-11-21T12:21:23;99534.59;;;11.20;100.00
24858;BME280;12935;50.782;6.074;2023-11-21T12:23:48;99533.06;;;11.16;100.00
24858;BME280;12935;50.782;6.074;2023-11-21T12:26:14;99529.94;;;11.14;100.00
24858;BME280;12935;50.782;6.074;2023-11-21T12:28:39;99535.03;;;11.05;100.00
24858;BME280;12935;50.782;6.074;2023-11-21T12:31:05;99537.81;;;11.01;100.00
24858;BME280;12935;50.782;6.074;2023-11-21T12:33:32;99545.63;;;10.96;100.00
24858;BME280;12935;50.782;6.074;2023-11-21T12:35:58;99545.25;;;10.83;100.00
24858;BME280;12935;50.782;6.074;2023-11-21T12:38:23;99535.91;;;10.73;100.00
24858;BME280;12935;50.782;6.074;2023-11-21T12:40:50;99536.69;;;10.60;100.00
24858;BME280;12935;50.782;6.074;2023-11-21T12:43:16;99552.72;;;10.54;100.00
24858;BME280;12935;50.782;6.074;2023-11-21T12:45:43;99565.63;;;10.53;100.00
24858;BME280;12935;50.782;6.074;2023-11-21T12:48:09;99564.84;;;10.39;100.00
24858;BME280;12935;50.782;6.074;2023-11-21T12:50:37;99566.38;;;10.33;100.00
24858;BME280;12935;50.782;6.074;2023-11-21T12:53:06;99569.47;;;10.24;100.00
24858;BME280;12935;50.782;6.074;2023-11-21T12:55:35;99565.97;;;10.24;100.00
24858;BME280;12935;50.782;6.074;2023-11-21T12:58:05;99565.59;;;10.25;100.00
24858;BME280;12935;50.782;6.074;2023-11-21T13:00:47;99578.03;;;10.15;100.00
24858;BME280;12935;50.782;6.074;2023-11-21T13:03:15;99573.72;;;9.97;100.00
24858;BME280;12935;50.782;6.074;2023-11-21T13:05:49;99569.03;;;9.94;100.00